createdAt,value
2023-04-27T00:02:38.627Z,8.80
2023-04-27T00:06:41.594Z,8.90
2023-04-27T00:10:44.447Z,8.90
2023-04-27T00:14:48.673Z,8.90
2023-04-27T00:18:52.221Z,8.90
2023-04-27T00:22:55.020Z,9.00
2023-04-27T00:26:57.835Z,9.00
2023-04-27T00:31:03.656Z,9.00
2023-04-27T00:35:07.589Z,8.90
2023-04-27T00:39:10.730Z,8.90
2023-04-27T00:43:13.813Z,8.90
2023-04-27T00:47:18.370Z,9.00
2023-04-27T00:51:21.476Z,8.80
2023-04-27T00:55:25.793Z,8.90
2023-04-27T00:59:28.620Z,8.90
2023-04-27T01:03:33.623Z,8.80
2023-04-27T01:07:38.544Z,8.80
2023-04-27T01:11:41.338Z,8.90
2023-04-27T01:15:44.131Z,8.90
2023-04-27T01:19:49.879Z,8.70
2023-04-27T01:23:54.584Z,8.50
2023-04-27T01:27:57.387Z,8.50
2023-04-27T01:32:00.359Z,8.50
2023-04-27T01:36:03.148Z,8.60
2023-04-27T01:40:08.855Z,8.60
2023-04-27T01:44:11.930Z,8.50
2023-04-27T01:48:14.845Z,8.50
2023-04-27T01:52:20.036Z,8.40
2023-04-27T01:56:24.179Z,8.40
2023-04-27T02:00:27.034Z,8.40
2023-04-27T02:04:30.030Z,8.30
2023-04-27T02:08:34.974Z,8.30
2023-04-27T02:12:39.160Z,8.30
2023-04-27T02:16:43.729Z,8.20
2023-04-27T02:20:46.532Z,8.00
2023-04-27T02:24:49.300Z,8.00
2023-04-27T02:28:53.439Z,7.90
2023-04-27T02:32:58.470Z,7.90
2023-04-27T02:37:01.306Z,7.80
2023-04-27T02:41:04.144Z,7.80
2023-04-27T02:45:09.674Z,7.70
2023-04-27T02:49:14.117Z,7.70
2023-04-27T02:53:17.066Z,7.60
2023-04-27T02:57:19.875Z,7.50
2023-04-27T03:01:24.113Z,7.50
2023-04-27T03:05:28.344Z,7.60
2023-04-27T03:09:31.196Z,7.30
2023-04-27T03:13:41.317Z,7.20
2023-04-27T03:17:46.031Z,7.10
2023-04-27T03:21:49.604Z,6.90
2023-04-27T03:25:53.447Z,7.00
2023-04-27T03:29:56.405Z,7.10
2023-04-27T03:34:00.687Z,7.00
2023-04-27T03:38:03.511Z,6.90
2023-04-27T03:42:08.121Z,6.70
2023-04-27T03:46:10.994Z,6.70
2023-04-27T03:50:15.256Z,6.70
2023-04-27T03:54:18.099Z,6.70
2023-04-27T03:58:20.959Z,6.80
2023-04-27T04:02:42.362Z,6.90
2023-04-27T04:06:46.677Z,6.70
2023-04-27T04:10:49.521Z,6.80
2023-04-27T04:14:52.536Z,6.80
2023-04-27T04:18:55.398Z,6.90
2023-04-27T04:22:59.801Z,6.90
2023-04-27T04:27:02.932Z,6.80
2023-04-27T04:31:06.525Z,6.80
2023-04-27T04:35:09.510Z,6.90
2023-04-27T04:39:14.018Z,7.00
2023-04-27T04:43:17.060Z,7.00
2023-04-27T04:47:19.893Z,7.10
2023-04-27T04:51:22.849Z,7.40
2023-04-27T04:55:28.802Z,7.50
2023-04-27T04:59:34.459Z,7.60
2023-04-27T05:03:37.555Z,7.80
2023-04-27T05:07:40.635Z,7.80
2023-04-27T05:11:44.809Z,7.60
2023-04-27T05:15:47.655Z,7.70
2023-04-27T05:19:50.491Z,7.80
2023-04-27T05:23:53.418Z,7.80
2023-04-27T05:27:57.647Z,7.90
2023-04-27T05:32:00.680Z,8.10
2023-04-27T05:36:03.584Z,8.40
2023-04-27T05:40:09.352Z,8.50
2023-04-27T05:44:13.509Z,8.60
2023-04-27T05:48:16.367Z,8.70
2023-04-27T05:52:19.186Z,8.80
2023-04-27T05:56:22.077Z,8.90
2023-04-27T06:00:26.582Z,8.90
2023-04-27T06:04:29.750Z,8.90
2023-04-27T06:08:32.877Z,9.00
2023-04-27T06:12:35.748Z,9.20
2023-04-27T06:16:40.567Z,9.20
2023-04-27T06:20:43.958Z,9.40
2023-04-27T06:24:46.761Z,9.40
2023-04-27T06:28:49.559Z,9.30
2023-04-27T06:32:53.771Z,9.50
2023-04-27T06:36:56.578Z,9.60
2023-04-27T06:40:59.370Z,9.50
2023-04-27T06:45:02.159Z,9.70
2023-04-27T06:49:06.422Z,9.90
2023-04-27T06:53:10.072Z,10.00
2023-04-27T06:57:12.849Z,10.20
2023-04-27T07:01:16.251Z,10.20
2023-04-27T07:05:20.508Z,10.30
2023-04-27T07:09:27.587Z,10.30
2023-04-27T07:13:31.012Z,10.40
2023-04-27T07:17:34.170Z,10.70
2023-04-27T07:21:38.365Z,10.80
2023-04-27T07:25:41.241Z,11.00
2023-04-27T07:29:44.407Z,11.40
2023-04-27T07:33:47.731Z,11.60
2023-04-27T07:37:52.030Z,11.60
2023-04-27T07:41:55.242Z,11.80
2023-04-27T07:45:58.432Z,12.10
2023-04-27T07:50:01.357Z,12.30
2023-04-27T07:54:05.624Z,12.30
2023-04-27T07:58:08.396Z,12.60
2023-04-27T08:02:19.637Z,12.50
2023-04-27T08:06:22.995Z,12.90
2023-04-27T08:10:27.530Z,13.20
2023-04-27T08:14:30.523Z,13.80
2023-04-27T08:18:33.281Z,14.10
2023-04-27T08:22:36.106Z,14.40
2023-04-27T08:26:41.907Z,14.50
2023-04-27T08:30:44.713Z,14.80
2023-04-27T08:34:47.468Z,15.50
2023-04-27T08:38:50.511Z,15.80
2023-04-27T08:42:59.389Z,16.40
2023-04-27T08:47:04.924Z,17.20
2023-04-27T08:51:12.034Z,17.90
2023-04-27T08:55:16.621Z,18.20
2023-04-27T08:59:20.963Z,19.10
2023-04-27T09:03:24.729Z,19.40
2023-04-27T09:07:28.644Z,19.60
2023-04-27T09:11:33.703Z,19.00
2023-04-27T09:15:46.414Z,18.90
2023-04-27T09:19:51.183Z,19.50
2023-04-27T09:23:54.137Z,19.90
2023-04-27T09:27:58.259Z,20.10
2023-04-27T09:32:02.846Z,20.70
2023-04-27T09:36:07.445Z,20.80
2023-04-27T09:40:11.160Z,20.30
2023-04-27T09:44:15.390Z,19.40
2023-04-27T09:48:19.571Z,18.80
2023-04-27T09:52:22.442Z,19.50
2023-04-27T09:56:34.297Z,19.30
2023-04-27T10:00:49.733Z,19.20
2023-04-27T10:05:30.630Z,19.10
2023-04-27T10:09:38.792Z,19.50
2023-04-27T10:13:54.379Z,19.40
2023-04-27T10:18:04.102Z,19.90
2023-04-27T10:22:08.466Z,19.90
2023-04-27T10:26:11.638Z,19.40
2023-04-27T10:30:18.494Z,19.60
2023-04-27T10:34:22.091Z,20.20
2023-04-27T10:38:31.034Z,20.00
2023-04-27T10:42:33.922Z,20.00
2023-04-27T10:46:37.364Z,20.90
2023-04-27T10:50:40.520Z,21.00
2023-04-27T10:54:47.871Z,20.30
2023-04-27T10:58:50.754Z,20.10
2023-04-27T11:02:54.826Z,20.30
2023-04-27T11:06:58.651Z,18.80
2023-04-27T11:11:03.159Z,18.40
2023-04-27T11:15:07.209Z,18.40
2023-04-27T11:19:10.042Z,18.90
2023-04-27T11:23:12.953Z,19.40
2023-04-27T11:27:17.985Z,20.00
2023-04-27T11:31:21.083Z,19.70
2023-04-27T11:35:34.210Z,19.60
2023-04-27T11:39:41.647Z,19.60
2023-04-27T11:43:49.391Z,19.60
2023-04-27T11:47:52.832Z,19.40
2023-04-27T11:51:58.684Z,19.10
2023-04-27T11:56:02.444Z,21.60
2023-04-27T12:00:11.106Z,22.10
2023-04-27T12:04:17.893Z,20.60
2023-04-27T12:08:21.548Z,20.10
2023-04-27T12:12:25.110Z,19.40
2023-04-27T12:16:29.390Z,19.20
2023-04-27T12:20:32.332Z,19.50
2023-04-27T12:24:35.361Z,19.10
2023-04-27T12:28:38.282Z,21.80
2023-04-27T12:32:42.626Z,23.80
2023-04-27T12:36:45.749Z,25.30
2023-04-27T12:40:49.031Z,26.00
2023-04-27T12:44:52.152Z,25.10
2023-04-27T12:48:57.124Z,25.10
2023-04-27T12:53:00.218Z,26.10
2023-04-27T12:57:06.294Z,27.70
2023-04-27T13:01:15.976Z,28.20
2023-04-27T13:05:22.161Z,25.50
2023-04-27T13:09:25.157Z,23.60
2023-04-27T13:13:28.060Z,23.20
2023-04-27T13:17:31.020Z,25.20
2023-04-27T13:21:35.362Z,26.80
2023-04-27T13:25:38.203Z,26.50
2023-04-27T13:29:41.003Z,24.90
2023-04-27T13:33:44.969Z,24.80
2023-04-27T13:37:49.235Z,24.30
2023-04-27T13:41:52.127Z,23.60
2023-04-27T13:45:56.471Z,23.20
2023-04-27T13:50:00.040Z,22.30
2023-04-27T13:54:04.312Z,21.80
2023-04-27T13:58:07.157Z,21.40
2023-04-27T14:02:10.261Z,20.80
2023-04-27T14:06:13.107Z,20.50
2023-04-27T14:10:17.586Z,20.70
2023-04-27T14:14:20.810Z,20.70
2023-04-27T14:18:31.746Z,20.60
2023-04-27T14:22:36.236Z,20.10
2023-04-27T14:26:43.839Z,19.70
2023-04-27T14:30:46.678Z,19.60
2023-04-27T14:34:49.588Z,19.40
2023-04-27T14:38:52.427Z,19.50
2023-04-27T14:42:56.643Z,19.70
2023-04-27T14:46:59.540Z,19.60
2023-04-27T14:51:02.878Z,19.50
2023-04-27T14:55:06.488Z,19.50
2023-04-27T14:59:10.803Z,19.60
2023-04-27T15:03:13.765Z,19.60
2023-04-27T15:07:16.689Z,19.30
2023-04-27T15:11:19.646Z,19.10
2023-04-27T15:15:23.883Z,19.00
2023-04-27T15:19:26.822Z,19.20
2023-04-27T15:23:29.649Z,19.20
2023-04-27T15:27:32.503Z,19.50
2023-04-27T15:31:37.042Z,19.60
2023-04-27T15:35:40.481Z,19.60
2023-04-27T15:39:43.311Z,19.50
2023-04-27T15:43:46.322Z,19.40
2023-04-27T15:47:50.579Z,19.30
2023-04-27T15:51:55.209Z,19.30
2023-04-27T15:55:58.043Z,19.40
2023-04-27T16:00:01.147Z,19.60
2023-04-27T16:04:05.889Z,19.20
2023-04-27T16:08:08.935Z,19.00
2023-04-27T16:12:11.735Z,18.90
2023-04-27T16:16:14.931Z,19.00
2023-04-27T16:20:19.090Z,18.90
2023-04-27T16:24:21.914Z,18.70
2023-04-27T16:28:24.735Z,18.50
2023-04-27T16:32:27.637Z,18.00
2023-04-27T16:36:33.553Z,18.10
2023-04-27T16:40:36.425Z,18.10
2023-04-27T16:44:39.441Z,18.10
2023-04-27T16:48:42.281Z,17.90
2023-04-27T16:52:46.503Z,18.00
2023-04-27T16:56:50.157Z,17.90
2023-04-27T17:00:53.087Z,17.80
2023-04-27T17:04:56.001Z,17.90
2023-04-27T17:09:00.236Z,17.80
2023-04-27T17:13:03.493Z,17.70
2023-04-27T17:17:07.224Z,17.50
2023-04-27T17:21:10.064Z,17.50
2023-04-27T17:25:14.356Z,17.40
2023-04-27T17:29:17.164Z,17.50
2023-04-27T17:33:20.032Z,17.40
2023-04-27T17:37:22.872Z,17.40
2023-04-27T17:41:27.038Z,17.20
2023-04-27T17:45:31.778Z,17.00
2023-04-27T17:49:34.647Z,16.90
2023-04-27T17:53:37.449Z,16.80
2023-04-27T17:57:41.568Z,16.70
2023-04-27T18:01:44.356Z,16.60
2023-04-27T18:05:47.125Z,16.40
2023-04-27T18:09:50.409Z,16.30
2023-04-27T18:13:54.868Z,16.20
2023-04-27T18:17:57.719Z,16.10
2023-04-27T18:22:00.685Z,16.00
2023-04-27T18:26:03.398Z,15.80
2023-04-27T18:30:08.842Z,15.70
2023-04-27T18:34:11.568Z,15.60
2023-04-27T18:38:14.316Z,15.50
2023-04-27T18:42:18.346Z,15.40
2023-04-27T18:46:22.571Z,15.30
2023-04-27T18:50:25.405Z,15.20
2023-04-27T18:54:28.290Z,15.10
2023-04-27T18:58:31.097Z,15.00
2023-04-27T19:02:36.169Z,14.90
2023-04-27T19:06:39.097Z,14.70
2023-04-27T19:10:42.095Z,14.50
2023-04-27T19:14:44.894Z,14.50
2023-04-27T19:18:48.949Z,14.40
2023-04-27T19:22:51.798Z,14.30
2023-04-27T19:26:54.955Z,14.30
2023-04-27T19:30:57.885Z,14.20
2023-04-27T19:35:02.386Z,14.10
2023-04-27T19:39:05.287Z,13.90
2023-04-27T19:43:09.623Z,13.80
2023-04-27T19:47:12.497Z,13.70
2023-04-27T19:51:16.637Z,13.70
2023-04-27T19:55:19.547Z,13.50
2023-04-27T19:59:22.624Z,13.30
2023-04-27T20:03:25.649Z,13.30
2023-04-27T20:07:29.989Z,13.30
2023-04-27T20:11:32.780Z,13.30
2023-04-27T20:15:35.583Z,13.30
2023-04-27T20:19:40.576Z,13.30
2023-04-27T20:23:44.714Z,13.30
2023-04-27T20:27:47.477Z,13.20
2023-04-27T20:31:50.477Z,13.20
2023-04-27T20:35:55.564Z,13.10
2023-04-27T20:40:01.046Z,13.10
2023-04-27T20:44:03.909Z,13.00
2023-04-27T20:48:09.302Z,12.80
2023-04-27T20:52:12.353Z,12.80
2023-04-27T20:56:16.838Z,12.80
2023-04-27T21:00:20.108Z,12.50
2023-04-27T21:04:22.943Z,12.40
2023-04-27T21:08:26.022Z,12.50
2023-04-27T21:12:30.152Z,12.50
2023-04-27T21:16:32.920Z,12.50
2023-04-27T21:20:36.073Z,12.40
2023-04-27T21:24:38.811Z,12.40
2023-04-27T21:28:43.956Z,12.40
2023-04-27T21:32:46.745Z,12.40
2023-04-27T21:36:49.585Z,12.30
2023-04-27T21:40:52.331Z,12.30
2023-04-27T21:44:57.690Z,12.30
2023-04-27T21:49:00.428Z,12.30
2023-04-27T21:53:03.145Z,12.30
2023-04-27T21:57:05.930Z,12.20
2023-04-27T22:01:11.988Z,12.20
2023-04-27T22:05:16.222Z,12.10
2023-04-27T22:09:19.083Z,12.10
2023-04-27T22:13:21.834Z,12.00
2023-04-27T22:17:26.052Z,11.80
2023-04-27T22:21:29.366Z,11.50
2023-04-27T22:25:32.570Z,11.50
2023-04-27T22:29:35.409Z,11.50
2023-04-27T22:33:39.502Z,11.60
2023-04-27T22:37:44.201Z,11.50
2023-04-27T22:41:47.019Z,11.40
2023-04-27T22:45:49.878Z,11.30
2023-04-27T22:49:54.571Z,11.20
2023-04-27T22:53:57.351Z,11.20
2023-04-27T22:58:00.188Z,11.10
2023-04-27T23:02:03.024Z,11.00
2023-04-27T23:06:08.459Z,10.90
2023-04-27T23:10:12.937Z,10.90
2023-04-27T23:14:18.103Z,10.80
2023-04-27T23:18:21.103Z,10.70
2023-04-27T23:22:25.286Z,10.70
2023-04-27T23:26:28.078Z,10.70
2023-04-27T23:30:30.979Z,10.70
2023-04-27T23:34:33.731Z,10.70
2023-04-27T23:38:37.797Z,10.60
2023-04-27T23:42:40.540Z,10.60
2023-04-27T23:46:43.338Z,10.70
2023-04-27T23:50:46.581Z,10.70
2023-04-27T23:54:50.712Z,10.60
2023-04-27T23:58:53.463Z,10.60
